Time;durP1;ratioP1;P1;durP2;ratioP2;P2;SDS_P1;SDS_P2;PMS_P1;PMS_P2;Temp;Humidity;BMP_temperature;BMP_pressure;BME280_temperature;BME280_humidity;BME280_pressure;Samples;Min_cycle;Max_cycle;Signal;HPM_P1;HPM_P2
2023/12/14 00:07:14;;;;;;;;;;;7.00;99.90;;;;;;6700917;88;20571;-78
2023/12/14 00:17:14;;;;;;;;;;;6.90;99.90;;;;;;6708010;88;20047;-79
2023/12/14 00:27:15;;;;;;;;;;;7.00;99.90;;;;;;6702937;88;20579;-79
2023/12/14 00:37:15;;;;;;;;;;;6.80;99.90;;;;;;6702826;88;20621;-79
2023/12/14 00:47:16;;;;;;;;;;;6.80;99.90;;;;;;6703770;88;20067;-77
2023/12/14 00:57:16;;;;;;;;;;;6.80;99.90;;;;;;6704672;88;20211;-78
2023/12/14 01:07:17;;;;;;;;;;;6.90;99.90;;;;;;6701847;88;20511;-77
2023/12/14 01:17:18;;;;;;;;;;;7.00;99.90;;;;;;6698831;88;20115;-78
2023/12/14 01:27:18;;;;;;;;;;;7.20;99.90;;;;;;6703381;88;20189;-78
2023/12/14 01:37:19;;;;;;;;;;;7.30;99.90;;;;;;6699982;88;20127;-77
2023/12/14 01:47:19;;;;;;;;;;;7.30;99.90;;;;;;6705272;88;20066;-76
2023/12/14 01:57:20;;;;;;;;;;;7.30;99.90;;;;;;6698103;88;20118;-77
2023/12/14 02:07:21;;;;;;;;;;;7.50;99.90;;;;;;6699136;88;20063;-77
2023/12/14 02:17:21;;;;;;;;;;;7.60;99.90;;;;;;6700529;88;20469;-78
2023/12/14 02:27:21;;;;;;;;;;;7.60;99.90;;;;;;6701300;88;20070;-78
2023/12/14 02:37:22;;;;;;;;;;;7.60;99.90;;;;;;6706171;88;20089;-77
2023/12/14 02:47:23;;;;;;;;;;;7.60;99.90;;;;;;6703828;88;20175;-77
2023/12/14 02:57:23;;;;;;;;;;;7.70;99.90;;;;;;6682221;88;20219;-78
2023/12/14 03:07:23;;;;;;;;;;;7.70;99.90;;;;;;6694926;88;20617;-77
2023/12/14 03:17:24;;;;;;;;;;;7.80;99.90;;;;;;6706906;88;20096;-76
2023/12/14 03:27:24;;;;;;;;;;;7.80;99.90;;;;;;6696016;88;20048;-77
2023/12/14 03:37:25;;;;;;;;;;;7.80;99.90;;;;;;6697109;88;20676;-79
2023/12/14 03:47:25;;;;;;;;;;;7.80;99.90;;;;;;6699476;88;20169;-77
2023/12/14 03:57:26;;;;;;;;;;;7.80;99.90;;;;;;6701248;88;20084;-77
2023/12/14 04:07:26;;;;;;;;;;;7.80;99.90;;;;;;6692879;88;20178;-77
2023/12/14 04:17:26;;;;;;;;;;;7.90;99.90;;;;;;6698091;88;20072;-77
2023/12/14 04:27:29;;;;;;;;;;;7.80;99.90;;;;;;6702217;88;20067;-78
2023/12/14 04:47:33;;;;;;;;;;;7.50;99.90;;;;;;6732873;88;20086;-79
2023/12/14 04:57:33;;;;;;;;;;;7.50;99.90;;;;;;6732892;88;20090;-79
2023/12/14 05:07:34;;;;;;;;;;;7.40;99.90;;;;;;6735723;88;20196;-78
2023/12/14 05:17:36;;;;;;;;;;;7.30;99.90;;;;;;6731716;88;20033;-78
2023/12/14 05:27:37;;;;;;;;;;;7.20;99.90;;;;;;6753195;88;20076;-79
2023/12/14 05:37:41;;;;;;;;;;;7.20;99.90;;;;;;6748208;88;20058;-79
2023/12/14 05:47:41;;;;;;;;;;;7.10;99.90;;;;;;6749643;88;20058;-79
2023/12/14 05:57:42;;;;;;;;;;;7.10;99.90;;;;;;6749549;88;20085;-80
2023/12/14 06:07:42;;;;;;;;;;;7.00;99.90;;;;;;6753133;88;20071;-78
2023/12/14 06:17:43;;;;;;;;;;;7.00;99.90;;;;;;6766240;88;20166;-79
2023/12/14 06:27:44;;;;;;;;;;;6.80;99.90;;;;;;6761855;88;20082;-79
2023/12/14 06:37:45;;;;;;;;;;;6.80;99.90;;;;;;6759202;87;20197;-79
2023/12/14 06:47:46;;;;;;;;;;;6.80;99.90;;;;;;6759491;88;20255;-78
2023/12/14 06:57:46;;;;;;;;;;;6.70;99.90;;;;;;6770232;88;20079;-79
2023/12/14 07:07:47;;;;;;;;;;;6.70;99.90;;;;;;6752634;88;20060;-79
2023/12/14 07:17:47;;;;;;;;;;;6.50;99.90;;;;;;6765675;88;20095;-79
2023/12/14 07:27:48;;;;;;;;;;;6.50;99.90;;;;;;6752785;88;20132;-80
2023/12/14 07:37:48;;;;;;;;;;;6.50;99.90;;;;;;6750419;88;20129;-78
2023/12/14 07:47:49;;;;;;;;;;;6.40;99.90;;;;;;6747154;88;20057;-78
2023/12/14 07:57:50;;;;;;;;;;;6.40;99.90;;;;;;6751288;88;20078;-78
2023/12/14 08:07:52;;;;;;;;;;;6.40;99.90;;;;;;6747390;88;20062;-79
2023/12/14 08:17:52;;;;;;;;;;;6.30;99.90;;;;;;6743706;88;20588;-77
2023/12/14 08:27:56;;;;;;;;;;;6.30;99.90;;;;;;6743303;88;20189;-80
2023/12/14 08:37:57;;;;;;;;;;;6.30;99.90;;;;;;6756244;88;20075;-79
2023/12/14 08:47:57;;;;;;;;;;;6.30;99.90;;;;;;6741751;88;20057;-77
2023/12/14 08:57:58;;;;;;;;;;;6.20;99.90;;;;;;6745193;88;20084;-78
2023/12/14 09:07:59;;;;;;;;;;;6.20;99.90;;;;;;6746302;88;20080;-78
2023/12/14 09:28:06;;;;;;;;;;;6.10;99.90;;;;;;6719863;88;20083;-79
2023/12/14 09:38:06;;;;;;;;;;;6.10;99.90;;;;;;6722966;88;20059;-79
2023/12/14 09:48:09;;;;;;;;;;;6.00;99.90;;;;;;6719233;88;20063;-79
2023/12/14 09:58:10;;;;;;;;;;;6.00;99.90;;;;;;6728246;88;20122;-79
2023/12/14 10:08:11;;;;;;;;;;;6.00;99.90;;;;;;6728092;88;20067;-79
2023/12/14 10:18:12;;;;;;;;;;;6.10;99.90;;;;;;6719021;88;20728;-79
2023/12/14 10:28:13;;;;;;;;;;;6.00;99.90;;;;;;6741443;88;20101;-79
2023/12/14 10:38:14;;;;;;;;;;;6.00;99.90;;;;;;6728784;77;20063;-79
2023/12/14 10:48:20;;;;;;;;;;;5.90;99.90;;;;;;6705359;88;20528;-78
2023/12/14 10:58:20;;;;;;;;;;;5.80;99.90;;;;;;6696115;88;20099;-78
2023/12/14 11:08:22;;;;;;;;;;;5.80;99.90;;;;;;6695478;88;20091;-78
2023/12/14 11:18:24;;;;;;;;;;;5.80;99.90;;;;;;6699258;88;20370;-77
2023/12/14 11:28:25;;;;;;;;;;;5.80;99.90;;;;;;6694730;88;20079;-78
2023/12/14 11:38:25;;;;;;;;;;;5.70;99.90;;;;;;6697360;88;20076;-77
2023/12/14 11:48:26;;;;;;;;;;;5.70;99.90;;;;;;6697606;88;20246;-77
2023/12/14 11:58:26;;;;;;;;;;;5.90;99.90;;;;;;6699748;88;20557;-79
2023/12/14 12:08:27;;;;;;;;;;;5.90;99.90;;;;;;6699973;88;20064;-76
2023/12/14 12:18:27;;;;;;;;;;;6.00;99.90;;;;;;6705727;88;20506;-80
2023/12/14 12:28:29;;;;;;;;;;;5.90;99.90;;;;;;6700403;88;20079;-80
2023/12/14 12:38:30;;;;;;;;;;;5.90;99.90;;;;;;6699753;88;20093;-78
2023/12/14 12:48:30;;;;;;;;;;;5.80;99.90;;;;;;6699495;88;20084;-78
2023/12/14 12:58:31;;;;;;;;;;;5.80;99.90;;;;;;6696291;88;20587;-77
2023/12/14 13:08:31;;;;;;;;;;;5.80;99.90;;;;;;6698102;88;20103;-77
2023/12/14 13:18:32;;;;;;;;;;;5.80;99.90;;;;;;6700154;88;20096;-78
2023/12/14 13:28:32;;;;;;;;;;;5.80;99.90;;;;;;6701110;88;20136;-78
2023/12/14 13:38:36;;;;;;;;;;;5.90;99.90;;;;;;6700016;88;20085;-77
2023/12/14 13:48:36;;;;;;;;;;;5.80;99.90;;;;;;6707242;88;20140;-78
2023/12/14 13:58:38;;;;;;;;;;;5.90;99.90;;;;;;6698582;88;20119;-78
2023/12/14 14:08:39;;;;;;;;;;;5.90;99.90;;;;;;6700564;88;20078;-78
2023/12/14 14:18:39;;;;;;;;;;;5.90;99.90;;;;;;6703987;88;20063;-79
2023/12/14 14:28:40;;;;;;;;;;;5.80;99.90;;;;;;6702950;88;20088;-79
2023/12/14 14:38:40;;;;;;;;;;;5.70;99.90;;;;;;6698598;88;20072;-78
2023/12/14 14:48:41;;;;;;;;;;;5.70;99.90;;;;;;6699862;88;21238;-78
2023/12/14 14:58:45;;;;;;;;;;;5.70;99.90;;;;;;6700427;88;20899;-78
2023/12/14 15:08:46;;;;;;;;;;;5.70;99.90;;;;;;6695804;88;20109;-78
2023/12/14 15:18:46;;;;;;;;;;;5.60;99.90;;;;;;6701356;88;20123;-78
2023/12/14 15:28:48;;;;;;;;;;;5.60;99.90;;;;;;6702858;88;20556;-78
2023/12/14 15:38:49;;;;;;;;;;;5.60;99.90;;;;;;6705982;88;20105;-80
2023/12/14 15:48:49;;;;;;;;;;;5.50;99.90;;;;;;6707114;88;20083;-78
2023/12/14 15:58:49;;;;;;;;;;;5.50;99.90;;;;;;6704554;88;20072;-78
2023/12/14 16:08:50;;;;;;;;;;;5.60;99.90;;;;;;6706671;88;20108;-79
2023/12/14 16:18:50;;;;;;;;;;;5.60;99.90;;;;;;6703643;88;20122;-79
2023/12/14 16:28:51;;;;;;;;;;;5.50;99.90;;;;;;6706096;88;20080;-79
2023/12/14 16:48:54;;;;;;;;;;;5.40;99.90;;;;;;6743911;88;20093;-81
2023/12/14 16:58:56;;;;;;;;;;;5.50;99.90;;;;;;6728536;88;20107;-80
2023/12/14 17:08:56;;;;;;;;;;;5.50;99.90;;;;;;6713843;88;20091;-80
2023/12/14 17:18:57;;;;;;;;;;;5.40;99.90;;;;;;6716763;88;20174;-80
2023/12/14 17:28:57;;;;;;;;;;;5.50;99.90;;;;;;6720690;88;20076;-79
2023/12/14 17:38:57;;;;;;;;;;;5.40;99.90;;;;;;6730002;88;20063;-80
2023/12/14 17:48:58;;;;;;;;;;;5.40;99.90;;;;;;6727883;88;20090;-79
2023/12/14 17:58:59;;;;;;;;;;;5.20;99.90;;;;;;6712504;88;20516;-80
2023/12/14 18:08:59;;;;;;;;;;;5.30;99.90;;;;;;6714256;88;20076;-81
2023/12/14 18:19:00;;;;;;;;;;;5.30;99.90;;;;;;6720865;88;20084;-80
2023/12/14 18:29:00;;;;;;;;;;;5.20;99.90;;;;;;6720565;88;20083;-79
2023/12/14 18:39:01;;;;;;;;;;;5.00;99.90;;;;;;6716750;88;20659;-79
2023/12/14 18:49:01;;;;;;;;;;;4.80;99.90;;;;;;6722082;88;20067;-80
2023/12/14 18:59:02;;;;;;;;;;;4.80;99.90;;;;;;6732275;88;20103;-79
2023/12/14 19:09:02;;;;;;;;;;;4.70;99.90;;;;;;6734005;88;20526;-80
2023/12/14 19:19:03;;;;;;;;;;;4.80;99.90;;;;;;6734498;88;20069;-79
2023/12/14 19:29:03;;;;;;;;;;;4.90;99.90;;;;;;6730636;88;20886;-80
2023/12/14 19:39:04;;;;;;;;;;;4.90;99.90;;;;;;6722155;88;20047;-83
2023/12/14 19:49:05;;;;;;;;;;;4.90;99.90;;;;;;6721147;88;20055;-81
2023/12/14 19:59:05;;;;;;;;;;;5.00;99.90;;;;;;6716559;88;20134;-80
2023/12/14 20:09:05;;;;;;;;;;;5.00;99.90;;;;;;6725857;88;20211;-80
2023/12/14 20:19:06;;;;;;;;;;;4.90;99.90;;;;;;6720931;88;20059;-79
2023/12/14 20:29:07;;;;;;;;;;;4.90;99.90;;;;;;6722017;88;20059;-81
2023/12/14 20:39:08;;;;;;;;;;;4.80;99.90;;;;;;6723618;88;20505;-81
2023/12/14 20:49:08;;;;;;;;;;;4.90;99.90;;;;;;6723859;88;20055;-81
2023/12/14 20:59:09;;;;;;;;;;;5.00;99.90;;;;;;6722643;88;20246;-81
2023/12/14 21:09:09;;;;;;;;;;;5.00;99.90;;;;;;6723810;88;20132;-80
2023/12/14 21:19:10;;;;;;;;;;;5.00;99.90;;;;;;6736668;88;20068;-81
2023/12/14 21:29:10;;;;;;;;;;;5.00;99.90;;;;;;6744839;88;20058;-82
2023/12/14 21:39:11;;;;;;;;;;;4.90;99.90;;;;;;6738726;88;20083;-79
2023/12/14 21:49:12;;;;;;;;;;;4.80;99.90;;;;;;6739730;88;20068;-80
2023/12/14 21:59:13;;;;;;;;;;;4.70;99.90;;;;;;6734664;88;20158;-80
2023/12/14 22:09:15;;;;;;;;;;;4.60;99.90;;;;;;6733366;88;20081;-80
2023/12/14 22:19:16;;;;;;;;;;;4.70;99.90;;;;;;6742954;88;20835;-81
2023/12/14 22:29:16;;;;;;;;;;;4.60;99.90;;;;;;6741892;88;20138;-80
2023/12/14 22:39:16;;;;;;;;;;;4.70;99.90;;;;;;6744916;77;20185;-79
2023/12/14 22:49:17;;;;;;;;;;;4.80;99.90;;;;;;6714281;88;20570;-79
2023/12/14 22:59:17;;;;;;;;;;;4.70;99.90;;;;;;6700213;88;20055;-79
2023/12/14 23:09:18;;;;;;;;;;;4.60;99.90;;;;;;6697672;88;20106;-78
2023/12/14 23:19:18;;;;;;;;;;;4.50;99.90;;;;;;6702404;88;20083;-78
2023/12/14 23:29:19;;;;;;;;;;;4.70;99.90;;;;;;6702154;88;20133;-78
2023/12/14 23:39:19;;;;;;;;;;;4.60;99.90;;;;;;6690483;88;20075;-79
2023/12/14 23:49:19;;;;;;;;;;;4.60;99.90;;;;;;6696666;88;20091;-77
2023/12/14 23:59:20;;;;;;;;;;;4.60;99.90;;;;;;6694623;88;20059;-78
